createdAt,value
2022-12-03T00:00:18.668Z,98126.00
2022-12-03T00:02:53.594Z,98121.00
2022-12-03T00:05:28.532Z,98116.00
2022-12-03T00:08:03.876Z,98123.00
2022-12-03T00:10:38.807Z,98113.00
2022-12-03T00:13:13.704Z,98114.00
2022-12-03T00:15:48.588Z,98127.00
2022-12-03T00:18:23.459Z,98125.00
2022-12-03T00:20:58.347Z,98134.00
2022-12-03T00:23:35.950Z,98130.00
2022-12-03T00:26:15.062Z,98130.00
2022-12-03T00:28:49.945Z,98116.00
2022-12-03T00:31:25.757Z,98130.00
2022-12-03T00:34:00.630Z,98125.00
2022-12-03T00:36:35.503Z,98128.00
2022-12-03T00:39:10.354Z,98127.00
2022-12-03T00:41:45.374Z,98131.00
2022-12-03T00:44:20.238Z,98125.00
2022-12-03T00:46:55.175Z,98127.00
2022-12-03T00:49:30.076Z,98132.00
2022-12-03T00:52:04.986Z,98132.00
2022-12-03T00:54:39.844Z,98135.00
2022-12-03T00:57:14.785Z,98145.00
2022-12-03T00:59:49.603Z,98131.00
2022-12-03T01:02:24.572Z,98138.00
2022-12-03T01:04:59.670Z,98133.00
2022-12-03T01:07:34.873Z,98136.00
2022-12-03T01:10:10.633Z,98141.00
2022-12-03T01:12:45.484Z,98146.00
2022-12-03T01:15:20.388Z,98137.00
2022-12-03T01:17:55.288Z,98139.00
2022-12-03T01:20:30.189Z,98139.00
2022-12-03T01:23:05.532Z,98141.00
2022-12-03T01:25:40.446Z,98135.00
2022-12-03T01:28:15.305Z,98135.00
2022-12-03T01:31:08.736Z,98131.00
2022-12-03T01:33:43.785Z,98134.00
2022-12-03T01:36:18.669Z,98138.00
2022-12-03T01:38:53.613Z,98133.00
2022-12-03T01:41:29.344Z,98140.00
2022-12-03T01:44:15.649Z,98146.00
2022-12-03T01:46:52.267Z,98141.00
2022-12-03T01:49:50.016Z,98140.00
2022-12-03T01:52:32.826Z,98137.00
2022-12-03T01:55:16.475Z,98138.00
2022-12-03T01:57:56.299Z,98141.00
2022-12-03T02:00:31.660Z,98137.00
2022-12-03T02:03:22.742Z,98150.00
2022-12-03T02:05:57.690Z,98142.00
2022-12-03T02:08:39.100Z,98147.00
2022-12-03T02:11:24.929Z,98142.00
2022-12-03T02:14:06.736Z,98151.00
2022-12-03T02:16:42.833Z,98144.00
2022-12-03T02:19:27.791Z,98145.00
2022-12-03T02:22:29.780Z,98144.00
2022-12-03T02:25:19.882Z,98138.00
2022-12-03T02:27:55.693Z,98138.00
2022-12-03T02:30:31.671Z,98135.00
2022-12-03T02:33:06.824Z,98134.00
2022-12-03T02:35:41.843Z,98131.00
2022-12-03T02:38:26.636Z,98130.00
2022-12-03T02:41:07.615Z,98124.00
2022-12-03T02:43:42.523Z,98136.00
2022-12-03T02:46:17.438Z,98144.00
2022-12-03T02:48:52.562Z,98140.00
2022-12-03T02:51:27.596Z,98138.00
2022-12-03T02:54:03.489Z,98141.00
2022-12-03T02:56:38.511Z,98146.00
2022-12-03T02:59:13.444Z,98141.00
2022-12-03T03:01:48.490Z,98148.00
2022-12-03T03:04:24.937Z,98146.00
2022-12-03T03:06:59.955Z,98155.00
2022-12-03T03:09:35.201Z,98132.00
2022-12-03T03:12:10.804Z,98140.00
2022-12-03T03:14:45.977Z,98137.00
2022-12-03T03:17:20.980Z,98136.00
2022-12-03T03:19:55.899Z,98137.00
2022-12-03T03:22:41.061Z,98143.00
2022-12-03T03:25:21.137Z,98142.00
2022-12-03T03:27:56.023Z,98146.00
2022-12-03T03:30:31.153Z,98136.00
2022-12-03T03:33:06.728Z,98144.00
2022-12-03T03:35:43.673Z,98130.00
2022-12-03T03:38:20.591Z,98141.00
2022-12-03T03:40:58.614Z,98140.00
2022-12-03T03:43:35.266Z,98140.00
2022-12-03T03:46:11.254Z,98133.00
2022-12-03T03:48:48.598Z,98139.00
2022-12-03T03:51:23.616Z,98128.00
2022-12-03T03:53:58.806Z,98138.00
2022-12-03T03:56:34.705Z,98133.00
2022-12-03T03:59:09.696Z,98132.00
2022-12-03T04:01:46.298Z,98130.00
2022-12-03T04:04:24.233Z,98130.00
2022-12-03T04:06:59.373Z,98126.00
2022-12-03T04:09:34.260Z,98125.00
2022-12-03T04:12:30.437Z,98121.00
2022-12-03T04:15:06.415Z,98122.00
2022-12-03T04:17:41.310Z,98116.00
2022-12-03T04:20:16.958Z,98116.00
2022-12-03T04:22:51.843Z,98116.00
2022-12-03T04:25:45.079Z,98109.00
2022-12-03T04:28:38.567Z,98107.00
2022-12-03T04:31:31.847Z,98111.00
2022-12-03T04:34:25.389Z,98113.00
2022-12-03T04:37:00.306Z,98118.00
2022-12-03T04:39:35.496Z,98114.00
2022-12-03T04:42:10.467Z,98110.00
2022-12-03T04:44:45.409Z,98111.00
2022-12-03T04:47:21.838Z,98110.00
2022-12-03T04:49:56.691Z,98107.00
2022-12-03T04:52:31.544Z,98119.00
2022-12-03T04:55:07.662Z,98118.00
2022-12-03T04:57:42.579Z,98118.00
2022-12-03T05:00:17.748Z,98120.00
2022-12-03T05:02:52.823Z,98116.00
2022-12-03T05:05:27.757Z,98101.00
2022-12-03T05:08:02.641Z,98115.00
2022-12-03T05:10:38.001Z,98102.00
2022-12-03T05:13:12.891Z,98102.00
2022-12-03T05:15:47.783Z,98100.00
2022-12-03T05:18:22.673Z,98103.00
2022-12-03T05:20:57.571Z,98104.00
2022-12-03T05:23:32.478Z,98103.00
2022-12-03T05:26:07.440Z,98104.00
2022-12-03T05:28:42.348Z,98103.00
2022-12-03T05:31:17.422Z,98104.00
2022-12-03T05:33:52.411Z,98090.00
2022-12-03T05:36:27.434Z,98101.00
2022-12-03T05:39:02.289Z,98101.00
2022-12-03T05:41:55.860Z,98087.00
2022-12-03T05:44:30.739Z,98089.00
2022-12-03T05:47:06.024Z,98075.00
2022-12-03T05:49:41.106Z,98076.00
2022-12-03T05:52:16.092Z,98084.00
2022-12-03T05:54:51.303Z,98086.00
2022-12-03T05:57:26.347Z,98079.00
2022-12-03T06:00:01.252Z,98079.00
2022-12-03T06:02:36.445Z,98081.00
2022-12-03T06:05:13.771Z,98083.00
2022-12-03T06:07:50.804Z,98080.00
2022-12-03T06:10:26.447Z,98086.00
2022-12-03T06:13:02.144Z,98091.00
2022-12-03T06:15:43.307Z,98083.00
2022-12-03T06:18:18.768Z,98086.00
2022-12-03T06:20:53.670Z,98101.00
2022-12-03T06:23:28.549Z,98095.00
2022-12-03T06:26:03.604Z,98093.00
2022-12-03T06:28:38.895Z,98099.00
2022-12-03T06:31:14.192Z,98108.00
2022-12-03T06:33:49.195Z,98105.00
2022-12-03T06:36:26.682Z,98105.00
2022-12-03T06:39:01.627Z,98107.00
2022-12-03T06:41:36.621Z,98112.00
2022-12-03T06:44:11.591Z,98115.00
2022-12-03T06:46:46.578Z,98111.00
2022-12-03T06:49:21.558Z,98116.00
2022-12-03T06:51:56.451Z,98122.00
2022-12-03T06:54:31.517Z,98118.00
2022-12-03T06:57:06.467Z,98121.00
2022-12-03T06:59:41.509Z,98120.00
2022-12-03T07:02:16.411Z,98116.00
2022-12-03T07:04:51.555Z,98123.00
2022-12-03T07:07:26.599Z,98123.00
2022-12-03T07:10:01.659Z,98115.00
2022-12-03T07:12:36.623Z,98104.00
2022-12-03T07:15:11.728Z,98107.00
2022-12-03T07:17:46.677Z,98099.00
2022-12-03T07:20:23.612Z,98097.00
2022-12-03T07:22:58.551Z,98088.00
2022-12-03T07:25:33.494Z,98097.00
2022-12-03T07:28:08.403Z,98111.00
2022-12-03T07:30:43.346Z,98103.00
2022-12-03T07:33:18.306Z,98107.00
2022-12-03T07:35:53.588Z,98101.00
2022-12-03T07:38:28.487Z,98104.00
2022-12-03T07:41:03.541Z,98098.00
2022-12-03T07:43:38.625Z,98104.00
2022-12-03T07:46:13.642Z,98089.00
2022-12-03T07:48:48.726Z,98104.00
2022-12-03T07:51:27.482Z,98101.00
2022-12-03T07:54:07.115Z,98100.00
2022-12-03T07:56:42.552Z,98100.00
2022-12-03T07:59:18.120Z,98103.00
2022-12-03T08:01:53.213Z,98094.00
2022-12-03T08:04:28.618Z,98090.00
2022-12-03T08:07:03.615Z,98099.00
2022-12-03T08:09:40.942Z,98103.00
2022-12-03T08:12:39.851Z,98099.00
2022-12-03T08:15:23.734Z,98100.00
2022-12-03T08:18:00.738Z,98101.00
2022-12-03T08:20:41.460Z,98099.00
2022-12-03T08:23:19.825Z,98108.00
2022-12-03T08:25:54.836Z,98109.00
2022-12-03T08:28:31.281Z,98098.00
2022-12-03T08:31:32.349Z,98101.00
2022-12-03T08:34:27.091Z,98099.00
2022-12-03T08:37:15.827Z,98100.00
2022-12-03T08:39:54.611Z,98100.00
2022-12-03T08:42:41.789Z,98100.00
2022-12-03T08:45:30.234Z,98108.00
2022-12-03T08:48:39.273Z,98102.00
2022-12-03T08:51:25.175Z,98098.00
2022-12-03T08:54:11.220Z,98095.00
2022-12-03T08:56:46.087Z,98095.00
2022-12-03T08:59:25.969Z,98093.00
2022-12-03T09:02:00.898Z,98094.00
2022-12-03T09:04:47.776Z,98096.00
2022-12-03T09:07:22.719Z,98095.00
2022-12-03T09:09:57.611Z,98098.00
2022-12-03T09:12:32.475Z,98101.00
2022-12-03T09:15:08.384Z,98104.00
2022-12-03T09:17:43.402Z,98106.00
2022-12-03T09:20:18.308Z,98105.00
2022-12-03T09:22:53.200Z,98103.00
2022-12-03T09:25:28.094Z,98104.00
2022-12-03T09:28:02.971Z,98112.00
2022-12-03T09:30:38.173Z,98113.00
2022-12-03T09:33:13.984Z,98106.00
2022-12-03T09:35:48.951Z,98105.00
2022-12-03T09:38:23.878Z,98106.00
2022-12-03T09:40:59.935Z,98104.00
2022-12-03T09:44:02.622Z,98104.00
2022-12-03T09:46:30.510Z,98098.00
2022-12-03T09:49:13.983Z,98085.00
2022-12-03T09:51:50.692Z,98078.00
2022-12-03T09:54:29.286Z,98077.00
2022-12-03T09:57:04.550Z,98072.00
2022-12-03T09:59:39.501Z,98081.00
2022-12-03T10:02:26.924Z,98076.00
2022-12-03T10:05:02.045Z,98078.00
2022-12-03T10:07:37.761Z,98080.00
2022-12-03T10:10:22.832Z,98080.00
2022-12-03T10:12:57.744Z,98089.00
2022-12-03T10:15:33.393Z,98086.00
2022-12-03T10:18:30.631Z,98086.00
2022-12-03T10:21:19.205Z,98087.00
2022-12-03T10:24:22.998Z,98078.00
2022-12-03T10:27:03.068Z,98069.00
2022-12-03T10:29:38.158Z,98069.00
2022-12-03T10:32:13.188Z,98071.00
2022-12-03T10:34:48.087Z,98077.00
2022-12-03T10:37:23.171Z,98070.00
2022-12-03T10:40:12.174Z,98066.00
2022-12-03T10:42:47.083Z,98076.00
2022-12-03T10:45:23.556Z,98068.00
2022-12-03T10:48:21.064Z,98062.00
2022-12-03T10:51:03.921Z,98059.00
2022-12-03T10:53:41.083Z,98059.00
2022-12-03T10:56:26.571Z,98059.00
2022-12-03T10:59:01.438Z,98054.00
2022-12-03T11:01:36.842Z,98049.00
2022-12-03T11:04:22.119Z,98041.00
2022-12-03T11:06:57.032Z,98034.00
2022-12-03T11:09:33.534Z,98040.00
2022-12-03T11:12:27.033Z,98032.00
2022-12-03T11:15:06.635Z,98027.00
2022-12-03T11:17:47.498Z,98032.00
2022-12-03T11:20:25.056Z,98026.00
2022-12-03T11:23:00.412Z,98027.00
2022-12-03T11:25:47.841Z,98030.00
2022-12-03T11:28:32.961Z,98022.00
2022-12-03T11:31:12.178Z,98006.00
2022-12-03T11:33:47.111Z,98022.00
2022-12-03T11:36:42.076Z,98015.00
2022-12-03T11:39:51.741Z,98021.00
2022-12-03T11:42:39.272Z,98021.00
2022-12-03T11:45:37.282Z,98007.00
2022-12-03T11:48:15.181Z,98011.00
2022-12-03T11:50:53.038Z,98008.00
2022-12-03T11:53:35.826Z,98001.00
2022-12-03T11:56:27.136Z,97997.00
2022-12-03T11:59:11.390Z,97998.00
2022-12-03T12:01:46.931Z,97996.00
2022-12-03T12:04:37.945Z,97996.00
2022-12-03T12:07:12.910Z,97983.00
2022-12-03T12:09:55.198Z,97986.00
2022-12-03T12:12:51.074Z,97986.00
2022-12-03T12:15:44.304Z,97986.00
2022-12-03T12:18:51.155Z,97980.00
2022-12-03T12:21:47.788Z,97976.00
2022-12-03T12:24:28.859Z,97976.00
2022-12-03T12:27:29.518Z,97972.00
2022-12-03T12:30:17.089Z,97966.00
2022-12-03T12:33:23.351Z,97962.00
2022-12-03T12:35:58.359Z,97957.00
2022-12-03T12:38:33.262Z,97971.00
2022-12-03T12:41:10.460Z,97961.00
2022-12-03T12:43:45.424Z,97965.00
2022-12-03T12:46:46.560Z,97955.00
2022-12-03T12:49:15.875Z,97948.00
2022-12-03T12:51:50.968Z,97946.00
2022-12-03T12:54:25.859Z,97949.00
2022-12-03T12:57:00.779Z,97945.00
2022-12-03T12:59:35.868Z,97943.00
2022-12-03T13:02:58.732Z,97943.00
2022-12-03T13:05:41.567Z,97949.00
2022-12-03T13:08:40.534Z,97930.00
2022-12-03T13:11:42.145Z,97927.00
2022-12-03T13:14:23.892Z,97928.00
2022-12-03T13:17:01.759Z,97941.00
2022-12-03T13:19:48.306Z,97934.00
2022-12-03T13:22:25.805Z,97926.00
2022-12-03T13:28:33.689Z,97931.00
2022-12-03T13:31:40.592Z,97934.00
2022-12-03T13:34:33.402Z,97921.00
2022-12-03T13:37:34.133Z,97926.00
2022-12-03T13:40:27.679Z,97923.00
2022-12-03T13:43:12.296Z,97931.00
2022-12-03T13:45:51.361Z,97935.00
2022-12-03T13:48:32.171Z,97929.00
2022-12-03T13:51:31.923Z,97922.00
2022-12-03T13:54:16.217Z,97931.00
2022-12-03T13:56:51.248Z,97931.00
2022-12-03T13:59:26.552Z,97925.00
2022-12-03T14:02:01.508Z,97920.00
2022-12-03T14:04:36.604Z,97926.00
2022-12-03T14:07:11.473Z,97919.00
2022-12-03T14:09:46.359Z,97926.00
2022-12-03T14:12:26.981Z,97914.00
2022-12-03T14:15:04.631Z,97919.00
2022-12-03T14:17:39.543Z,97919.00
2022-12-03T14:20:15.589Z,97920.00
2022-12-03T14:22:52.941Z,97926.00
2022-12-03T14:25:32.592Z,97923.00
2022-12-03T14:28:10.302Z,97921.00
2022-12-03T14:30:45.229Z,97923.00
2022-12-03T14:33:20.114Z,97929.00
2022-12-03T14:35:56.232Z,97923.00
2022-12-03T14:38:31.391Z,97932.00
2022-12-03T14:41:26.352Z,97923.00
2022-12-03T14:44:01.228Z,97928.00
2022-12-03T14:46:36.143Z,97933.00
2022-12-03T14:49:11.262Z,97943.00
2022-12-03T14:51:46.146Z,97937.00
2022-12-03T14:54:21.897Z,97939.00
2022-12-03T14:56:56.953Z,97947.00
2022-12-03T14:59:31.899Z,97947.00
2022-12-03T15:02:07.121Z,97940.00
2022-12-03T15:04:42.402Z,97941.00
2022-12-03T15:07:17.302Z,97944.00
2022-12-03T15:09:52.540Z,97944.00
2022-12-03T15:12:27.681Z,97940.00
2022-12-03T15:15:02.561Z,97938.00
2022-12-03T15:17:37.481Z,97927.00
2022-12-03T15:20:13.021Z,97929.00
2022-12-03T15:22:47.946Z,97929.00
2022-12-03T15:25:25.562Z,97926.00
2022-12-03T15:28:00.774Z,97929.00
2022-12-03T15:30:36.105Z,97933.00
2022-12-03T15:33:11.228Z,97934.00
2022-12-03T15:35:46.268Z,97934.00
2022-12-03T15:38:21.417Z,97941.00
2022-12-03T15:40:56.764Z,97940.00
2022-12-03T15:43:31.733Z,97934.00
2022-12-03T15:46:06.758Z,97938.00
2022-12-03T15:48:41.975Z,97933.00
2022-12-03T15:51:17.217Z,97939.00
2022-12-03T15:53:52.302Z,97936.00
2022-12-03T15:56:27.248Z,97940.00
2022-12-03T15:59:02.291Z,97930.00
2022-12-03T16:01:37.290Z,97930.00
2022-12-03T16:04:12.332Z,97930.00
2022-12-03T16:06:47.474Z,97928.00
2022-12-03T16:09:26.937Z,97931.00
2022-12-03T16:12:02.232Z,97931.00
2022-12-03T16:14:37.246Z,97934.00
2022-12-03T16:17:12.279Z,97925.00
2022-12-03T16:19:47.494Z,97923.00
2022-12-03T16:22:22.437Z,97927.00
2022-12-03T16:24:57.397Z,97925.00
2022-12-03T16:27:32.742Z,97921.00
2022-12-03T16:30:08.873Z,97927.00
2022-12-03T16:32:44.133Z,97929.00
2022-12-03T16:35:19.220Z,97926.00
2022-12-03T16:37:54.267Z,97933.00
2022-12-03T16:40:29.213Z,97932.00
2022-12-03T16:43:04.928Z,97923.00
2022-12-03T16:45:42.480Z,97917.00
2022-12-03T16:48:18.707Z,97940.00
2022-12-03T16:50:53.876Z,97936.00
2022-12-03T16:53:28.870Z,97925.00
2022-12-03T16:56:04.042Z,97931.00
2022-12-03T16:58:39.143Z,97934.00
2022-12-03T17:01:14.451Z,97924.00
2022-12-03T17:03:49.502Z,97923.00
2022-12-03T17:06:24.560Z,97916.00
2022-12-03T17:08:59.653Z,97913.00
2022-12-03T17:11:34.570Z,97912.00
2022-12-03T17:14:09.535Z,97907.00
2022-12-03T17:16:44.514Z,97907.00
2022-12-03T17:19:21.544Z,97904.00
2022-12-03T17:21:56.497Z,97898.00
2022-12-03T17:24:31.709Z,97893.00
2022-12-03T17:27:07.877Z,97898.00
2022-12-03T17:29:42.928Z,97890.00
2022-12-03T17:32:17.820Z,97900.00
2022-12-03T17:34:52.884Z,97903.00
2022-12-03T17:37:27.782Z,97891.00
2022-12-03T17:40:06.626Z,97899.00
2022-12-03T17:42:41.625Z,97897.00
2022-12-03T17:45:16.670Z,97894.00
2022-12-03T17:47:51.683Z,97904.00
2022-12-03T17:50:26.585Z,97894.00
2022-12-03T17:53:03.759Z,97890.00
2022-12-03T17:55:44.512Z,97897.00
2022-12-03T17:58:20.412Z,97901.00
2022-12-03T18:01:01.824Z,97898.00
2022-12-03T18:03:38.307Z,97893.00
2022-12-03T18:06:13.345Z,97889.00
2022-12-03T18:08:48.275Z,97895.00
2022-12-03T18:11:23.539Z,97886.00
2022-12-03T18:13:58.741Z,97890.00
2022-12-03T18:16:33.789Z,97896.00
2022-12-03T18:19:08.722Z,97888.00
2022-12-03T18:21:43.634Z,97900.00
2022-12-03T18:24:18.508Z,97881.00
2022-12-03T18:26:53.387Z,97881.00
2022-12-03T18:29:28.309Z,97882.00
2022-12-03T18:32:03.379Z,97884.00
2022-12-03T18:34:38.285Z,97877.00
2022-12-03T18:37:14.269Z,97875.00
2022-12-03T18:39:49.278Z,97880.00
2022-12-03T18:42:24.667Z,97873.00
2022-12-03T18:44:59.774Z,97879.00
2022-12-03T18:47:34.740Z,97876.00
2022-12-03T18:50:11.788Z,97882.00
2022-12-03T18:52:46.643Z,97884.00
2022-12-03T18:55:22.186Z,97876.00
2022-12-03T18:57:57.098Z,97877.00
2022-12-03T19:00:32.383Z,97874.00
2022-12-03T19:03:08.039Z,97876.00
2022-12-03T19:05:42.979Z,97870.00
2022-12-03T19:08:19.236Z,97873.00
2022-12-03T19:10:59.781Z,97873.00
2022-12-03T19:13:34.714Z,97873.00
2022-12-03T19:16:12.116Z,97874.00
2022-12-03T19:18:47.081Z,97871.00
2022-12-03T19:21:22.242Z,97871.00
2022-12-03T19:24:23.211Z,97871.00
2022-12-03T19:26:54.760Z,97871.00
2022-12-03T19:29:29.775Z,97868.00
2022-12-03T19:32:05.282Z,97860.00
2022-12-03T19:34:40.493Z,97866.00
2022-12-03T19:37:15.536Z,97875.00
2022-12-03T19:39:54.235Z,97854.00
2022-12-03T19:42:31.085Z,97864.00
2022-12-03T19:45:07.452Z,97862.00
2022-12-03T19:47:42.400Z,97856.00
2022-12-03T19:50:22.666Z,97856.00
2022-12-03T19:52:58.044Z,97849.00
2022-12-03T19:55:35.439Z,97856.00
2022-12-03T19:58:10.317Z,97865.00
2022-12-03T20:00:45.276Z,97859.00
2022-12-03T20:03:21.449Z,97855.00
2022-12-03T20:05:59.913Z,97854.00
2022-12-03T20:08:38.126Z,97854.00
2022-12-03T20:11:22.814Z,97855.00
2022-12-03T20:14:01.296Z,97858.00
2022-12-03T20:16:36.683Z,97861.00
2022-12-03T20:19:15.283Z,97865.00
2022-12-03T20:21:50.132Z,97859.00
2022-12-03T20:24:25.194Z,97849.00
2022-12-03T20:27:00.102Z,97856.00
2022-12-03T20:29:35.085Z,97864.00
2022-12-03T20:32:10.209Z,97855.00
2022-12-03T20:34:45.270Z,97852.00
2022-12-03T20:37:20.164Z,97855.00
2022-12-03T20:39:55.419Z,97849.00
2022-12-03T20:42:30.605Z,97859.00
2022-12-03T20:45:06.282Z,97853.00
2022-12-03T20:47:41.562Z,97849.00
2022-12-03T20:50:16.496Z,97854.00
2022-12-03T20:53:09.737Z,97847.00
2022-12-03T20:55:55.049Z,97836.00
2022-12-03T20:58:31.547Z,97844.00
2022-12-03T21:01:15.587Z,97830.00
2022-12-03T21:03:53.228Z,97831.00
2022-12-03T21:06:29.957Z,97830.00
2022-12-03T21:09:07.321Z,97835.00
2022-12-03T21:11:42.686Z,97836.00
2022-12-03T21:14:17.688Z,97838.00
2022-12-03T21:17:07.678Z,97832.00
2022-12-03T21:19:43.542Z,97828.00
2022-12-03T21:22:18.519Z,97830.00
2022-12-03T21:24:53.445Z,97835.00
2022-12-03T21:27:28.493Z,97835.00
2022-12-03T21:30:04.040Z,97815.00
2022-12-03T21:32:39.784Z,97827.00
2022-12-03T21:35:14.818Z,97833.00
2022-12-03T21:37:50.192Z,97824.00
2022-12-03T21:40:25.337Z,97821.00
2022-12-03T21:43:00.292Z,97822.00
2022-12-03T21:45:35.125Z,97824.00
2022-12-03T21:48:10.609Z,97826.00
2022-12-03T21:50:46.056Z,97819.00
2022-12-03T21:53:20.900Z,97826.00
2022-12-03T21:55:56.167Z,97818.00
2022-12-03T21:58:31.055Z,97814.00
2022-12-03T22:01:20.164Z,97805.00
2022-12-03T22:03:55.253Z,97810.00
2022-12-03T22:06:30.222Z,97811.00
2022-12-03T22:09:05.111Z,97812.00
2022-12-03T22:11:40.037Z,97805.00
2022-12-03T22:14:15.037Z,97814.00
2022-12-03T22:16:49.917Z,97817.00
2022-12-03T22:19:25.748Z,97811.00
2022-12-03T22:22:00.616Z,97815.00
2022-12-03T22:24:35.530Z,97819.00
2022-12-03T22:27:10.404Z,97807.00
2022-12-03T22:29:45.301Z,97796.00
2022-12-03T22:32:20.264Z,97790.00
2022-12-03T22:34:55.163Z,97799.00
2022-12-03T22:37:30.016Z,97790.00
2022-12-03T22:40:05.754Z,97787.00
2022-12-03T22:42:40.666Z,97786.00
2022-12-03T22:45:15.618Z,97796.00
2022-12-03T22:47:50.490Z,97801.00
2022-12-03T22:50:25.371Z,97793.00
2022-12-03T22:53:00.362Z,97794.00
2022-12-03T22:55:35.254Z,97783.00
2022-12-03T22:58:11.012Z,97781.00
2022-12-03T23:00:45.888Z,97772.00
2022-12-03T23:03:22.072Z,97771.00
2022-12-03T23:05:57.004Z,97769.00
2022-12-03T23:08:31.853Z,97757.00
2022-12-03T23:11:07.699Z,97762.00
2022-12-03T23:13:42.740Z,97756.00
2022-12-03T23:16:22.487Z,97755.00
2022-12-03T23:18:59.799Z,97770.00
2022-12-03T23:21:35.726Z,97767.00
2022-12-03T23:24:10.635Z,97769.00
2022-12-03T23:26:45.522Z,97759.00
2022-12-03T23:29:20.488Z,97754.00
2022-12-03T23:31:57.200Z,97748.00
2022-12-03T23:34:32.142Z,97769.00
2022-12-03T23:37:07.075Z,97772.00
2022-12-03T23:39:42.050Z,97761.00
2022-12-03T23:42:17.132Z,97759.00
2022-12-03T23:44:52.097Z,97749.00
2022-12-03T23:47:26.952Z,97745.00
2022-12-03T23:50:02.519Z,97754.00
2022-12-03T23:52:37.640Z,97756.00
2022-12-03T23:55:12.490Z,97771.00
2022-12-03T23:57:47.434Z,97754.00
